sensor_id;sensor_type;location;lat;lon;timestamp;P1;durP1;ratioP1;P2;durP2;ratioP2
79478;SDS011;68943;49.472;17.970;2023-04-03T00:01:31;5.53;;;3.47;;
79478;SDS011;68943;49.472;17.970;2023-04-03T00:03:57;5.65;;;4.10;;
79478;SDS011;68943;49.472;17.970;2023-04-03T00:06:23;5.65;;;4.00;;
79478;SDS011;68943;49.472;17.970;2023-04-03T00:08:50;6.88;;;3.70;;
79478;SDS011;68943;49.472;17.970;2023-04-03T00:11:16;3.90;;;2.67;;
79478;SDS011;68943;49.472;17.970;2023-04-03T00:13:42;5.20;;;4.03;;
79478;SDS011;68943;49.472;17.970;2023-04-03T00:16:09;6.13;;;4.82;;
79478;SDS011;68943;49.472;17.970;2023-04-03T00:18:36;4.90;;;3.58;;
79478;SDS011;68943;49.472;17.970;2023-04-03T00:21:02;6.03;;;2.83;;
79478;SDS011;68943;49.472;17.970;2023-04-03T00:23:28;4.45;;;3.60;;
79478;SDS011;68943;49.472;17.970;2023-04-03T00:25:54;6.45;;;2.92;;
79478;SDS011;68943;49.472;17.970;2023-04-03T00:28:21;6.32;;;4.80;;
79478;SDS011;68943;49.472;17.970;2023-04-03T00:30:48;7.80;;;2.97;;
79478;SDS011;68943;49.472;17.970;2023-04-03T00:33:14;8.13;;;4.10;;
79478;SDS011;68943;49.472;17.970;2023-04-03T00:35:41;4.60;;;3.67;;
79478;SDS011;68943;49.472;17.970;2023-04-03T00:38:07;6.57;;;4.03;;
79478;SDS011;68943;49.472;17.970;2023-04-03T00:40:37;6.43;;;4.60;;
79478;SDS011;68943;49.472;17.970;2023-04-03T00:43:08;5.45;;;3.78;;
79478;SDS011;68943;49.472;17.970;2023-04-03T00:45:38;5.10;;;3.45;;
79478;SDS011;68943;49.472;17.970;2023-04-03T00:48:05;5.35;;;4.00;;
79478;SDS011;68943;49.472;17.970;2023-04-03T00:50:31;5.03;;;3.67;;
79478;SDS011;68943;49.472;17.970;2023-04-03T00:52:59;3.95;;;2.83;;
79478;SDS011;68943;49.472;17.970;2023-04-03T00:55:26;5.03;;;3.78;;
79478;SDS011;68943;49.472;17.970;2023-04-03T00:57:52;5.55;;;3.50;;
79478;SDS011;68943;49.472;17.970;2023-04-03T01:00:20;4.75;;;4.22;;
79478;SDS011;68943;49.472;17.970;2023-04-03T01:02:47;5.30;;;3.53;;
79478;SDS011;68943;49.472;17.970;2023-04-03T01:05:13;6.85;;;5.18;;
79478;SDS011;68943;49.472;17.970;2023-04-03T01:07:41;6.38;;;4.63;;
79478;SDS011;68943;49.472;17.970;2023-04-03T01:10:08;7.22;;;4.65;;
79478;SDS011;68943;49.472;17.970;2023-04-03T01:12:39;5.15;;;3.70;;
79478;SDS011;68943;49.472;17.970;2023-04-03T01:15:06;6.40;;;4.38;;
79478;SDS011;68943;49.472;17.970;2023-04-03T01:17:34;7.50;;;5.28;;
79478;SDS011;68943;49.472;17.970;2023-04-03T01:25:32;7.25;;;4.85;;
79478;SDS011;68943;49.472;17.970;2023-04-03T01:27:59;7.63;;;4.20;;
79478;SDS011;68943;49.472;17.970;2023-04-03T01:30:27;7.45;;;4.68;;
79478;SDS011;68943;49.472;17.970;2023-04-03T01:32:56;7.88;;;5.30;;
79478;SDS011;68943;49.472;17.970;2023-04-03T01:35:22;8.32;;;5.35;;
79478;SDS011;68943;49.472;17.970;2023-04-03T01:37:48;5.88;;;4.03;;
79478;SDS011;68943;49.472;17.970;2023-04-03T01:40:14;7.85;;;4.45;;
79478;SDS011;68943;49.472;17.970;2023-04-03T01:42:40;12.38;;;7.18;;
79478;SDS011;68943;49.472;17.970;2023-04-03T01:45:06;12.13;;;6.75;;
79478;SDS011;68943;49.472;17.970;2023-04-03T01:47:32;10.93;;;7.35;;
79478;SDS011;68943;49.472;17.970;2023-04-03T01:49:58;9.10;;;5.38;;
79478;SDS011;68943;49.472;17.970;2023-04-03T01:52:24;10.68;;;6.82;;
79478;SDS011;68943;49.472;17.970;2023-04-03T01:54:50;8.88;;;6.18;;
79478;SDS011;68943;49.472;17.970;2023-04-03T01:57:16;6.65;;;5.10;;
79478;SDS011;68943;49.472;17.970;2023-04-03T01:59:42;6.88;;;3.90;;
79478;SDS011;68943;49.472;17.970;2023-04-03T02:02:09;7.15;;;4.90;;
79478;SDS011;68943;49.472;17.970;2023-04-03T02:04:37;9.88;;;5.65;;
79478;SDS011;68943;49.472;17.970;2023-04-03T02:07:03;9.05;;;4.55;;
79478;SDS011;68943;49.472;17.970;2023-04-03T02:09:29;10.45;;;6.13;;
79478;SDS011;68943;49.472;17.970;2023-04-03T02:11:55;10.15;;;7.03;;
79478;SDS011;68943;49.472;17.970;2023-04-03T02:14:21;7.63;;;4.60;;
79478;SDS011;68943;49.472;17.970;2023-04-03T02:16:48;5.22;;;3.83;;
79478;SDS011;68943;49.472;17.970;2023-04-03T02:19:14;8.55;;;5.78;;
79478;SDS011;68943;49.472;17.970;2023-04-03T02:21:40;7.45;;;3.78;;
79478;SDS011;68943;49.472;17.970;2023-04-03T02:24:06;7.47;;;4.53;;
79478;SDS011;68943;49.472;17.970;2023-04-03T02:26:32;8.88;;;5.53;;
79478;SDS011;68943;49.472;17.970;2023-04-03T02:28:59;7.85;;;4.22;;
79478;SDS011;68943;49.472;17.970;2023-04-03T02:31:25;11.23;;;6.47;;
79478;SDS011;68943;49.472;17.970;2023-04-03T02:33:51;8.18;;;5.38;;
79478;SDS011;68943;49.472;17.970;2023-04-03T02:36:17;9.35;;;4.35;;
79478;SDS011;68943;49.472;17.970;2023-04-03T02:38:43;10.95;;;6.03;;
79478;SDS011;68943;49.472;17.970;2023-04-03T02:41:10;11.07;;;6.60;;
79478;SDS011;68943;49.472;17.970;2023-04-03T02:43:37;8.95;;;5.03;;
79478;SDS011;68943;49.472;17.970;2023-04-03T02:46:03;7.90;;;5.05;;
79478;SDS011;68943;49.472;17.970;2023-04-03T02:48:29;9.15;;;4.00;;
79478;SDS011;68943;49.472;17.970;2023-04-03T02:50:56;10.65;;;5.50;;
79478;SDS011;68943;49.472;17.970;2023-04-03T02:53:22;8.23;;;4.32;;
79478;SDS011;68943;49.472;17.970;2023-04-03T02:55:48;11.48;;;7.13;;
79478;SDS011;68943;49.472;17.970;2023-04-03T02:58:14;11.38;;;6.00;;
79478;SDS011;68943;49.472;17.970;2023-04-03T03:00:40;11.02;;;5.93;;
79478;SDS011;68943;49.472;17.970;2023-04-03T03:03:06;4.07;;;3.50;;
79478;SDS011;68943;49.472;17.970;2023-04-03T03:05:32;7.25;;;5.35;;
79478;SDS011;68943;49.472;17.970;2023-04-03T03:07:58;6.07;;;4.13;;
79478;SDS011;68943;49.472;17.970;2023-04-03T03:10:24;9.27;;;5.50;;
79478;SDS011;68943;49.472;17.970;2023-04-03T03:12:50;8.75;;;6.07;;
79478;SDS011;68943;49.472;17.970;2023-04-03T03:15:16;5.68;;;3.75;;
79478;SDS011;68943;49.472;17.970;2023-04-03T03:17:44;7.20;;;5.00;;
79478;SDS011;68943;49.472;17.970;2023-04-03T03:20:10;13.70;;;6.93;;
79478;SDS011;68943;49.472;17.970;2023-04-03T03:22:37;6.25;;;5.38;;
79478;SDS011;68943;49.472;17.970;2023-04-03T03:25:03;14.93;;;6.97;;
79478;SDS011;68943;49.472;17.970;2023-04-03T03:27:29;7.82;;;4.28;;
79478;SDS011;68943;49.472;17.970;2023-04-03T03:29:55;10.00;;;5.63;;
79478;SDS011;68943;49.472;17.970;2023-04-03T03:32:21;6.53;;;4.55;;
79478;SDS011;68943;49.472;17.970;2023-04-03T03:34:47;9.18;;;5.25;;
79478;SDS011;68943;49.472;17.970;2023-04-03T03:37:13;10.88;;;3.90;;
79478;SDS011;68943;49.472;17.970;2023-04-03T03:39:39;10.23;;;5.25;;
79478;SDS011;68943;49.472;17.970;2023-04-03T03:42:05;10.23;;;4.10;;
79478;SDS011;68943;49.472;17.970;2023-04-03T03:44:31;8.70;;;5.03;;
79478;SDS011;68943;49.472;17.970;2023-04-03T03:46:57;10.32;;;5.28;;
79478;SDS011;68943;49.472;17.970;2023-04-03T03:49:23;6.07;;;4.22;;
79478;SDS011;68943;49.472;17.970;2023-04-03T03:51:49;11.65;;;4.45;;
79478;SDS011;68943;49.472;17.970;2023-04-03T03:54:16;5.82;;;4.15;;
79478;SDS011;68943;49.472;17.970;2023-04-03T03:56:42;4.72;;;3.05;;
79478;SDS011;68943;49.472;17.970;2023-04-03T03:59:10;7.55;;;4.22;;
79478;SDS011;68943;49.472;17.970;2023-04-03T04:01:40;8.02;;;3.97;;
79478;SDS011;68943;49.472;17.970;2023-04-03T04:04:06;5.88;;;3.70;;
79478;SDS011;68943;49.472;17.970;2023-04-03T04:06:32;14.07;;;5.35;;
79478;SDS011;68943;49.472;17.970;2023-04-03T04:08:58;7.57;;;4.43;;
79478;SDS011;68943;49.472;17.970;2023-04-03T04:11:24;5.63;;;4.03;;
79478;SDS011;68943;49.472;17.970;2023-04-03T04:13:50;7.47;;;4.00;;
79478;SDS011;68943;49.472;17.970;2023-04-03T04:16:16;8.35;;;5.20;;
79478;SDS011;68943;49.472;17.970;2023-04-03T04:18:42;7.55;;;4.32;;
79478;SDS011;68943;49.472;17.970;2023-04-03T04:21:08;6.90;;;4.63;;
79478;SDS011;68943;49.472;17.970;2023-04-03T04:23:34;9.95;;;4.75;;
79478;SDS011;68943;49.472;17.970;2023-04-03T04:26:00;7.90;;;5.10;;
79478;SDS011;68943;49.472;17.970;2023-04-03T04:28:26;7.20;;;4.80;;
79478;SDS011;68943;49.472;17.970;2023-04-03T04:30:52;9.40;;;5.50;;
79478;SDS011;68943;49.472;17.970;2023-04-03T04:33:18;7.30;;;4.45;;
79478;SDS011;68943;49.472;17.970;2023-04-03T04:35:46;6.22;;;4.25;;
79478;SDS011;68943;49.472;17.970;2023-04-03T04:38:13;6.45;;;4.18;;
79478;SDS011;68943;49.472;17.970;2023-04-03T04:40:39;6.15;;;4.88;;
79478;SDS011;68943;49.472;17.970;2023-04-03T04:43:06;6.85;;;5.10;;
79478;SDS011;68943;49.472;17.970;2023-04-03T04:45:32;9.85;;;5.38;;
79478;SDS011;68943;49.472;17.970;2023-04-03T04:47:58;8.93;;;4.70;;
79478;SDS011;68943;49.472;17.970;2023-04-03T04:50:24;7.13;;;4.00;;
79478;SDS011;68943;49.472;17.970;2023-04-03T04:52:50;5.65;;;2.85;;
79478;SDS011;68943;49.472;17.970;2023-04-03T04:55:16;8.73;;;3.88;;
79478;SDS011;68943;49.472;17.970;2023-04-03T04:57:42;8.95;;;4.13;;
79478;SDS011;68943;49.472;17.970;2023-04-03T05:00:08;6.13;;;3.75;;
79478;SDS011;68943;49.472;17.970;2023-04-03T05:02:34;6.72;;;4.15;;
79478;SDS011;68943;49.472;17.970;2023-04-03T05:05:00;8.35;;;4.78;;
79478;SDS011;68943;49.472;17.970;2023-04-03T05:07:27;5.50;;;3.30;;
79478;SDS011;68943;49.472;17.970;2023-04-03T05:09:52;5.10;;;3.22;;
79478;SDS011;68943;49.472;17.970;2023-04-03T05:12:18;5.55;;;3.10;;
79478;SDS011;68943;49.472;17.970;2023-04-03T05:14:44;7.10;;;4.00;;
79478;SDS011;68943;49.472;17.970;2023-04-03T05:17:10;7.40;;;4.00;;
79478;SDS011;68943;49.472;17.970;2023-04-03T05:19:36;5.97;;;3.95;;
79478;SDS011;68943;49.472;17.970;2023-04-03T05:22:02;8.73;;;4.00;;
79478;SDS011;68943;49.472;17.970;2023-04-03T05:24:28;10.85;;;4.88;;
79478;SDS011;68943;49.472;17.970;2023-04-03T05:26:55;8.07;;;3.58;;
79478;SDS011;68943;49.472;17.970;2023-04-03T05:29:21;5.60;;;3.03;;
79478;SDS011;68943;49.472;17.970;2023-04-03T05:31:48;7.97;;;4.30;;
79478;SDS011;68943;49.472;17.970;2023-04-03T05:34:15;6.95;;;3.42;;
79478;SDS011;68943;49.472;17.970;2023-04-03T05:36:41;7.35;;;4.07;;
79478;SDS011;68943;49.472;17.970;2023-04-03T05:39:07;5.35;;;3.95;;
79478;SDS011;68943;49.472;17.970;2023-04-03T05:41:34;11.25;;;4.32;;
79478;SDS011;68943;49.472;17.970;2023-04-03T05:44:00;9.50;;;4.25;;
79478;SDS011;68943;49.472;17.970;2023-04-03T05:46:26;7.18;;;4.13;;
79478;SDS011;68943;49.472;17.970;2023-04-03T05:48:52;6.57;;;3.30;;
79478;SDS011;68943;49.472;17.970;2023-04-03T05:51:20;7.80;;;4.22;;
79478;SDS011;68943;49.472;17.970;2023-04-03T05:53:47;9.85;;;3.92;;
79478;SDS011;68943;49.472;17.970;2023-04-03T05:56:14;4.80;;;4.35;;
79478;SDS011;68943;49.472;17.970;2023-04-03T05:58:40;5.10;;;2.70;;
79478;SDS011;68943;49.472;17.970;2023-04-03T06:01:06;6.47;;;3.63;;
79478;SDS011;68943;49.472;17.970;2023-04-03T06:03:32;9.98;;;3.88;;
79478;SDS011;68943;49.472;17.970;2023-04-03T06:05:58;5.95;;;4.05;;
79478;SDS011;68943;49.472;17.970;2023-04-03T06:08:25;7.75;;;3.92;;
79478;SDS011;68943;49.472;17.970;2023-04-03T06:10:51;4.05;;;3.05;;
79478;SDS011;68943;49.472;17.970;2023-04-03T06:13:17;4.50;;;3.22;;
79478;SDS011;68943;49.472;17.970;2023-04-03T06:15:43;10.23;;;3.80;;
79478;SDS011;68943;49.472;17.970;2023-04-03T06:18:09;4.68;;;3.88;;
79478;SDS011;68943;49.472;17.970;2023-04-03T06:20:35;7.20;;;4.15;;
79478;SDS011;68943;49.472;17.970;2023-04-03T06:23:01;6.85;;;3.97;;
79478;SDS011;68943;49.472;17.970;2023-04-03T06:25:27;4.88;;;2.75;;
79478;SDS011;68943;49.472;17.970;2023-04-03T06:27:53;4.07;;;2.42;;
79478;SDS011;68943;49.472;17.970;2023-04-03T06:30:20;5.93;;;3.47;;
79478;SDS011;68943;49.472;17.970;2023-04-03T06:32:46;8.90;;;5.35;;
79478;SDS011;68943;49.472;17.970;2023-04-03T06:35:12;6.90;;;3.65;;
79478;SDS011;68943;49.472;17.970;2023-04-03T06:37:38;4.70;;;3.13;;
79478;SDS011;68943;49.472;17.970;2023-04-03T06:40:05;5.03;;;2.90;;
79478;SDS011;68943;49.472;17.970;2023-04-03T06:42:31;6.03;;;3.88;;
79478;SDS011;68943;49.472;17.970;2023-04-03T06:44:57;3.33;;;2.65;;
79478;SDS011;68943;49.472;17.970;2023-04-03T06:47:23;7.00;;;4.50;;
79478;SDS011;68943;49.472;17.970;2023-04-03T06:49:49;6.80;;;3.42;;
79478;SDS011;68943;49.472;17.970;2023-04-03T06:52:17;4.82;;;3.20;;
79478;SDS011;68943;49.472;17.970;2023-04-03T06:54:43;3.97;;;2.42;;
79478;SDS011;68943;49.472;17.970;2023-04-03T06:57:09;5.80;;;3.72;;
79478;SDS011;68943;49.472;17.970;2023-04-03T06:59:35;7.53;;;3.17;;
79478;SDS011;68943;49.472;17.970;2023-04-03T07:02:01;6.50;;;5.78;;
79478;SDS011;68943;49.472;17.970;2023-04-03T07:04:27;3.65;;;3.35;;
79478;SDS011;68943;49.472;17.970;2023-04-03T07:06:53;4.38;;;3.35;;
79478;SDS011;68943;49.472;17.970;2023-04-03T07:09:19;6.70;;;4.35;;
79478;SDS011;68943;49.472;17.970;2023-04-03T07:11:49;6.82;;;4.00;;
79478;SDS011;68943;49.472;17.970;2023-04-03T07:14:15;5.38;;;3.85;;
79478;SDS011;68943;49.472;17.970;2023-04-03T07:16:41;5.32;;;3.97;;
79478;SDS011;68943;49.472;17.970;2023-04-03T07:19:07;8.02;;;5.32;;
79478;SDS011;68943;49.472;17.970;2023-04-03T07:21:33;4.28;;;3.38;;
79478;SDS011;68943;49.472;17.970;2023-04-03T07:24:00;8.27;;;4.68;;
79478;SDS011;68943;49.472;17.970;2023-04-03T07:26:27;6.10;;;3.22;;
79478;SDS011;68943;49.472;17.970;2023-04-03T07:28:53;5.50;;;4.90;;
79478;SDS011;68943;49.472;17.970;2023-04-03T07:31:19;9.55;;;4.53;;
79478;SDS011;68943;49.472;17.970;2023-04-03T07:33:46;8.23;;;4.68;;
79478;SDS011;68943;49.472;17.970;2023-04-03T07:36:14;7.32;;;4.07;;
79478;SDS011;68943;49.472;17.970;2023-04-03T07:38:40;5.53;;;4.03;;
79478;SDS011;68943;49.472;17.970;2023-04-03T07:41:06;4.28;;;2.78;;
79478;SDS011;68943;49.472;17.970;2023-04-03T07:43:37;7.25;;;3.95;;
79478;SDS011;68943;49.472;17.970;2023-04-03T07:46:04;8.38;;;3.67;;
79478;SDS011;68943;49.472;17.970;2023-04-03T07:48:30;6.80;;;4.10;;
79478;SDS011;68943;49.472;17.970;2023-04-03T07:51:00;7.53;;;5.82;;
79478;SDS011;68943;49.472;17.970;2023-04-03T07:53:27;7.53;;;5.47;;
79478;SDS011;68943;49.472;17.970;2023-04-03T07:55:53;9.23;;;4.28;;
79478;SDS011;68943;49.472;17.970;2023-04-03T07:58:21;5.30;;;3.75;;
79478;SDS011;68943;49.472;17.970;2023-04-03T08:00:47;5.95;;;4.93;;
79478;SDS011;68943;49.472;17.970;2023-04-03T08:03:14;13.65;;;5.47;;
79478;SDS011;68943;49.472;17.970;2023-04-03T08:05:44;9.00;;;5.53;;
79478;SDS011;68943;49.472;17.970;2023-04-03T08:08:12;4.35;;;3.95;;
79478;SDS011;68943;49.472;17.970;2023-04-03T08:10:39;9.50;;;6.13;;
79478;SDS011;68943;49.472;17.970;2023-04-03T08:13:05;6.78;;;4.93;;
79478;SDS011;68943;49.472;17.970;2023-04-03T08:15:31;5.03;;;4.00;;
79478;SDS011;68943;49.472;17.970;2023-04-03T08:17:58;9.70;;;3.97;;
79478;SDS011;68943;49.472;17.970;2023-04-03T08:20:24;3.05;;;2.60;;
79478;SDS011;68943;49.472;17.970;2023-04-03T08:22:50;5.80;;;4.63;;
79478;SDS011;68943;49.472;17.970;2023-04-03T08:25:16;9.27;;;3.95;;
79478;SDS011;68943;49.472;17.970;2023-04-03T08:27:44;8.02;;;3.78;;
79478;SDS011;68943;49.472;17.970;2023-04-03T08:30:10;3.55;;;3.05;;
79478;SDS011;68943;49.472;17.970;2023-04-03T08:32:36;5.85;;;3.83;;
79478;SDS011;68943;49.472;17.970;2023-04-03T08:35:03;7.22;;;4.78;;
79478;SDS011;68943;49.472;17.970;2023-04-03T08:37:29;5.97;;;3.72;;
79478;SDS011;68943;49.472;17.970;2023-04-03T08:39:55;5.65;;;3.47;;
79478;SDS011;68943;49.472;17.970;2023-04-03T08:52:20;7.78;;;5.32;;
79478;SDS011;68943;49.472;17.970;2023-04-03T08:54:52;5.63;;;4.00;;
79478;SDS011;68943;49.472;17.970;2023-04-03T08:57:21;10.20;;;5.05;;
79478;SDS011;68943;49.472;17.970;2023-04-03T09:02:23;7.85;;;4.28;;
79478;SDS011;68943;49.472;17.970;2023-04-03T09:04:51;8.70;;;4.60;;
79478;SDS011;68943;49.472;17.970;2023-04-03T09:07:20;7.50;;;4.90;;
79478;SDS011;68943;49.472;17.970;2023-04-03T09:09:47;4.43;;;3.47;;
79478;SDS011;68943;49.472;17.970;2023-04-03T09:12:25;7.93;;;3.63;;
79478;SDS011;68943;49.472;17.970;2023-04-03T09:22:54;5.88;;;3.13;;
79478;SDS011;68943;49.472;17.970;2023-04-03T09:25:25;3.97;;;2.78;;
79478;SDS011;68943;49.472;17.970;2023-04-03T09:27:53;4.70;;;2.47;;
79478;SDS011;68943;49.472;17.970;2023-04-03T09:30:23;5.90;;;2.55;;
79478;SDS011;68943;49.472;17.970;2023-04-03T09:32:51;4.20;;;3.55;;
79478;SDS011;68943;49.472;17.970;2023-04-03T09:35:20;4.43;;;1.77;;
79478;SDS011;68943;49.472;17.970;2023-04-03T09:37:51;2.42;;;1.83;;
79478;SDS011;68943;49.472;17.970;2023-04-03T09:40:34;4.40;;;1.95;;
79478;SDS011;68943;49.472;17.970;2023-04-03T09:43:20;5.97;;;1.98;;
79478;SDS011;68943;49.472;17.970;2023-04-03T09:45:47;2.60;;;1.52;;
79478;SDS011;68943;49.472;17.970;2023-04-03T09:50:56;3.55;;;2.88;;
79478;SDS011;68943;49.472;17.970;2023-04-03T09:53:47;2.25;;;1.45;;
79478;SDS011;68943;49.472;17.970;2023-04-03T09:58:48;5.75;;;1.70;;
79478;SDS011;68943;49.472;17.970;2023-04-03T10:03:46;3.72;;;1.58;;
79478;SDS011;68943;49.472;17.970;2023-04-03T10:06:29;3.88;;;1.55;;
79478;SDS011;68943;49.472;17.970;2023-04-03T10:09:00;3.33;;;1.85;;
79478;SDS011;68943;49.472;17.970;2023-04-03T10:11:29;3.38;;;1.30;;
79478;SDS011;68943;49.472;17.970;2023-04-03T10:13:59;3.95;;;1.77;;
79478;SDS011;68943;49.472;17.970;2023-04-03T10:16:27;2.65;;;1.13;;
79478;SDS011;68943;49.472;17.970;2023-04-03T10:19:29;1.80;;;0.90;;
79478;SDS011;68943;49.472;17.970;2023-04-03T10:26:41;2.17;;;1.58;;
79478;SDS011;68943;49.472;17.970;2023-04-03T10:32:10;0.90;;;0.68;;
79478;SDS011;68943;49.472;17.970;2023-04-03T10:34:44;0.85;;;0.63;;
79478;SDS011;68943;49.472;17.970;2023-04-03T10:39:50;2.25;;;1.00;;
79478;SDS011;68943;49.472;17.970;2023-04-03T10:58:04;2.92;;;1.20;;
79478;SDS011;68943;49.472;17.970;2023-04-03T11:00:39;3.00;;;1.52;;
79478;SDS011;68943;49.472;17.970;2023-04-03T11:03:10;3.17;;;1.77;;
79478;SDS011;68943;49.472;17.970;2023-04-03T11:10:51;2.20;;;1.60;;
79478;SDS011;68943;49.472;17.970;2023-04-03T11:16:05;1.20;;;0.63;;
79478;SDS011;68943;49.472;17.970;2023-04-03T11:21:09;2.55;;;1.88;;
79478;SDS011;68943;49.472;17.970;2023-04-03T11:23:38;2.30;;;1.08;;
79478;SDS011;68943;49.472;17.970;2023-04-03T11:26:07;1.52;;;0.95;;
79478;SDS011;68943;49.472;17.970;2023-04-03T11:28:34;3.10;;;1.85;;
79478;SDS011;68943;49.472;17.970;2023-04-03T11:33:49;6.05;;;1.95;;
79478;SDS011;68943;49.472;17.970;2023-04-03T11:36:24;3.25;;;1.92;;
79478;SDS011;68943;49.472;17.970;2023-04-03T11:38:52;2.72;;;1.45;;
79478;SDS011;68943;49.472;17.970;2023-04-03T11:41:24;3.58;;;1.92;;
79478;SDS011;68943;49.472;17.970;2023-04-03T11:44:34;1.75;;;0.98;;
79478;SDS011;68943;49.472;17.970;2023-04-03T11:52:01;2.92;;;1.25;;
79478;SDS011;68943;49.472;17.970;2023-04-03T11:54:44;2.00;;;1.77;;
79478;SDS011;68943;49.472;17.970;2023-04-03T11:57:22;4.63;;;1.33;;
79478;SDS011;68943;49.472;17.970;2023-04-03T11:59:49;4.22;;;1.70;;
79478;SDS011;68943;49.472;17.970;2023-04-03T12:05:25;2.00;;;1.42;;
79478;SDS011;68943;49.472;17.970;2023-04-03T12:10:37;0.90;;;0.63;;
79478;SDS011;68943;49.472;17.970;2023-04-03T12:13:13;1.67;;;1.25;;
79478;SDS011;68943;49.472;17.970;2023-04-03T12:20:53;1.95;;;1.00;;
79478;SDS011;68943;49.472;17.970;2023-04-03T12:23:24;2.33;;;1.63;;
79478;SDS011;68943;49.472;17.970;2023-04-03T12:25:51;5.05;;;1.58;;
79478;SDS011;68943;49.472;17.970;2023-04-03T12:28:17;5.10;;;1.27;;
79478;SDS011;68943;49.472;17.970;2023-04-03T12:30:43;2.80;;;1.52;;
79478;SDS011;68943;49.472;17.970;2023-04-03T12:33:13;2.05;;;0.68;;
79478;SDS011;68943;49.472;17.970;2023-04-03T12:35:44;2.17;;;1.02;;
79478;SDS011;68943;49.472;17.970;2023-04-03T12:46:09;1.92;;;1.25;;
79478;SDS011;68943;49.472;17.970;2023-04-03T12:48:58;2.08;;;1.67;;
79478;SDS011;68943;49.472;17.970;2023-04-03T12:53:49;2.85;;;1.30;;
79478;SDS011;68943;49.472;17.970;2023-04-03T12:56:24;3.00;;;1.20;;
79478;SDS011;68943;49.472;17.970;2023-04-03T12:58:52;2.25;;;1.02;;
79478;SDS011;68943;49.472;17.970;2023-04-03T13:01:19;2.38;;;1.17;;
79478;SDS011;68943;49.472;17.970;2023-04-03T13:03:50;2.85;;;1.20;;
79478;SDS011;68943;49.472;17.970;2023-04-03T13:06:18;2.55;;;1.10;;
79478;SDS011;68943;49.472;17.970;2023-04-03T13:08:49;2.65;;;1.33;;
79478;SDS011;68943;49.472;17.970;2023-04-03T13:11:16;3.72;;;1.20;;
79478;SDS011;68943;49.472;17.970;2023-04-03T13:13:58;1.83;;;1.25;;
79478;SDS011;68943;49.472;17.970;2023-04-03T13:16:25;2.17;;;1.20;;
79478;SDS011;68943;49.472;17.970;2023-04-03T13:18:54;3.08;;;0.82;;
79478;SDS011;68943;49.472;17.970;2023-04-03T13:21:26;0.80;;;0.70;;
79478;SDS011;68943;49.472;17.970;2023-04-03T13:23:57;3.65;;;2.13;;
79478;SDS011;68943;49.472;17.970;2023-04-03T13:26:24;2.55;;;1.35;;
79478;SDS011;68943;49.472;17.970;2023-04-03T13:28:51;1.88;;;1.33;;
79478;SDS011;68943;49.472;17.970;2023-04-03T13:33:57;3.13;;;1.13;;
79478;SDS011;68943;49.472;17.970;2023-04-03T13:36:26;4.28;;;1.73;;
79478;SDS011;68943;49.472;17.970;2023-04-03T13:39:01;2.22;;;0.98;;
79478;SDS011;68943;49.472;17.970;2023-04-03T13:41:34;2.58;;;1.05;;
79478;SDS011;68943;49.472;17.970;2023-04-03T13:46:46;3.88;;;1.20;;
79478;SDS011;68943;49.472;17.970;2023-04-03T13:51:54;2.45;;;1.60;;
79478;SDS011;68943;49.472;17.970;2023-04-03T13:54:24;2.95;;;1.35;;
79478;SDS011;68943;49.472;17.970;2023-04-03T13:56:55;2.83;;;1.55;;
79478;SDS011;68943;49.472;17.970;2023-04-03T13:59:24;2.70;;;1.88;;
79478;SDS011;68943;49.472;17.970;2023-04-03T14:04:20;2.08;;;1.15;;
79478;SDS011;68943;49.472;17.970;2023-04-03T14:06:48;2.80;;;1.00;;
79478;SDS011;68943;49.472;17.970;2023-04-03T14:09:15;1.75;;;1.10;;
79478;SDS011;68943;49.472;17.970;2023-04-03T14:11:41;3.47;;;2.17;;
79478;SDS011;68943;49.472;17.970;2023-04-03T14:14:21;3.72;;;1.45;;
79478;SDS011;68943;49.472;17.970;2023-04-03T14:16:50;3.17;;;1.65;;
79478;SDS011;68943;49.472;17.970;2023-04-03T14:19:19;2.78;;;1.88;;
79478;SDS011;68943;49.472;17.970;2023-04-03T14:21:45;3.50;;;1.27;;
79478;SDS011;68943;49.472;17.970;2023-04-03T14:24:11;2.70;;;1.20;;
79478;SDS011;68943;49.472;17.970;2023-04-03T14:26:38;2.35;;;1.08;;
79478;SDS011;68943;49.472;17.970;2023-04-03T14:29:04;4.38;;;1.50;;
79478;SDS011;68943;49.472;17.970;2023-04-03T14:31:31;3.30;;;2.38;;
79478;SDS011;68943;49.472;17.970;2023-04-03T14:33:56;2.63;;;1.52;;
79478;SDS011;68943;49.472;17.970;2023-04-03T14:36:23;1.80;;;1.02;;
79478;SDS011;68943;49.472;17.970;2023-04-03T14:38:51;1.45;;;1.10;;
79478;SDS011;68943;49.472;17.970;2023-04-03T14:41:18;1.77;;;0.80;;
79478;SDS011;68943;49.472;17.970;2023-04-03T14:43:45;2.00;;;1.10;;
79478;SDS011;68943;49.472;17.970;2023-04-03T14:46:19;2.15;;;1.52;;
79478;SDS011;68943;49.472;17.970;2023-04-03T14:48:48;5.53;;;2.50;;
79478;SDS011;68943;49.472;17.970;2023-04-03T14:51:14;4.88;;;2.38;;
79478;SDS011;68943;49.472;17.970;2023-04-03T14:53:41;3.90;;;1.50;;
79478;SDS011;68943;49.472;17.970;2023-04-03T14:56:11;5.50;;;1.40;;
79478;SDS011;68943;49.472;17.970;2023-04-03T14:58:37;3.30;;;2.03;;
79478;SDS011;68943;49.472;17.970;2023-04-03T15:01:03;2.00;;;1.17;;
79478;SDS011;68943;49.472;17.970;2023-04-03T15:03:29;2.40;;;0.73;;
79478;SDS011;68943;49.472;17.970;2023-04-03T15:05:55;2.03;;;1.05;;
79478;SDS011;68943;49.472;17.970;2023-04-03T15:08:23;2.63;;;1.50;;
79478;SDS011;68943;49.472;17.970;2023-04-03T15:10:49;5.18;;;1.55;;
79478;SDS011;68943;49.472;17.970;2023-04-03T15:13:17;3.30;;;1.73;;
79478;SDS011;68943;49.472;17.970;2023-04-03T15:15:44;2.35;;;1.13;;
79478;SDS011;68943;49.472;17.970;2023-04-03T15:18:43;1.92;;;1.30;;
79478;SDS011;68943;49.472;17.970;2023-04-03T15:21:02;3.85;;;1.10;;
79478;SDS011;68943;49.472;17.970;2023-04-03T15:23:29;1.65;;;1.08;;
79478;SDS011;68943;49.472;17.970;2023-04-03T15:25:55;1.70;;;0.85;;
79478;SDS011;68943;49.472;17.970;2023-04-03T15:28:28;2.90;;;1.65;;
79478;SDS011;68943;49.472;17.970;2023-04-03T15:30:55;3.50;;;1.58;;
79478;SDS011;68943;49.472;17.970;2023-04-03T15:33:21;2.55;;;1.42;;
79478;SDS011;68943;49.472;17.970;2023-04-03T15:35:47;3.40;;;1.42;;
79478;SDS011;68943;49.472;17.970;2023-04-03T15:38:14;3.13;;;1.52;;
79478;SDS011;68943;49.472;17.970;2023-04-03T15:40:40;3.95;;;2.00;;
79478;SDS011;68943;49.472;17.970;2023-04-03T15:43:07;4.10;;;2.60;;
79478;SDS011;68943;49.472;17.970;2023-04-03T15:45:33;5.45;;;0.95;;
79478;SDS011;68943;49.472;17.970;2023-04-03T15:48:00;2.45;;;0.90;;
79478;SDS011;68943;49.472;17.970;2023-04-03T15:50:27;2.90;;;1.20;;
79478;SDS011;68943;49.472;17.970;2023-04-03T15:52:53;3.03;;;0.98;;
79478;SDS011;68943;49.472;17.970;2023-04-03T15:55:23;7.78;;;1.35;;
79478;SDS011;68943;49.472;17.970;2023-04-03T15:57:51;3.33;;;2.20;;
79478;SDS011;68943;49.472;17.970;2023-04-03T16:00:18;3.67;;;1.70;;
79478;SDS011;68943;49.472;17.970;2023-04-03T16:02:45;3.45;;;1.20;;
79478;SDS011;68943;49.472;17.970;2023-04-03T16:05:11;2.05;;;0.90;;
79478;SDS011;68943;49.472;17.970;2023-04-03T16:07:38;3.22;;;1.25;;
79478;SDS011;68943;49.472;17.970;2023-04-03T16:10:05;2.95;;;1.33;;
79478;SDS011;68943;49.472;17.970;2023-04-03T16:12:32;1.70;;;1.13;;
79478;SDS011;68943;49.472;17.970;2023-04-03T16:14:58;2.50;;;1.45;;
79478;SDS011;68943;49.472;17.970;2023-04-03T16:17:25;1.95;;;1.38;;
79478;SDS011;68943;49.472;17.970;2023-04-03T16:19:51;2.20;;;1.38;;
79478;SDS011;68943;49.472;17.970;2023-04-03T16:22:18;3.53;;;1.85;;
79478;SDS011;68943;49.472;17.970;2023-04-03T16:24:44;4.15;;;1.33;;
79478;SDS011;68943;49.472;17.970;2023-04-03T16:27:10;3.15;;;1.50;;